<?xml version="1.0" encoding="UTF-8" standalone="no" ?>
<gpx xmlns="http://www.topografix.com/GPX/1/1" xmlns:xsi="http://www.w3.org/2001/XMLSchema-instance" xsi:schemaLocation="http://www.topografix.com/GPX/1/1 http://www.topografix.com/GPX/1/1/gpx.xsd" version="1.1" creator="VisuGPX - https://www.visugpx.com">
  <metadata>
    <name>Peyre en Aubrac - 32km</name>
    <desc><![CDATA[Fait en 05/2019 au départ des Chalets de Nozière  via Roc de Peyre]]></desc>
  </metadata>
  <trk>
    <name><![CDATA[chgt ROC DE PEYRE 30 km]]></name>
    <extensions>
      <line xmlns="http://www.topografix.com/GPX/gpx_style/0/2">
        <color>0000FF</color>
        <width>4</width>
      </line>
    </extensions>
    <trkseg>
      <trkpt lat="44.74618" lon="3.28403">
        <ele>985</ele>
        <time>2019-02-17T18:40:20Z</time>
      </trkpt>
      <trkpt lat="44.74963" lon="3.28137">
        <ele>978</ele>
        <time>2019-02-17T18:41:20Z</time>
      </trkpt>
      <trkpt lat="44.74796" lon="3.27476">
        <ele>988</ele>
        <time>2019-02-17T18:42:20Z</time>
      </trkpt>
      <trkpt lat="44.74803" lon="3.27231">
        <ele>1010</ele>
        <time>2019-02-17T18:43:20Z</time>
      </trkpt>
      <trkpt lat="44.74838" lon="3.27072">
        <ele>1020</ele>
        <time>2019-02-17T18:44:20Z</time>
      </trkpt>
      <trkpt lat="44.7464" lon="3.26995">
        <ele>1029</ele>
        <time>2019-02-17T18:45:20Z</time>
      </trkpt>
      <trkpt lat="44.74556" lon="3.26888">
        <ele>1039</ele>
        <time>2019-02-17T18:46:20Z</time>
      </trkpt>
      <trkpt lat="44.74392" lon="3.26765">
        <ele>1037</ele>
        <time>2019-02-17T18:47:20Z</time>
      </trkpt>
      <trkpt lat="44.74329" lon="3.2674">
        <ele>1034</ele>
        <time>2019-02-17T18:48:20Z</time>
      </trkpt>
      <trkpt lat="44.74257" lon="3.26686">
        <ele>1033</ele>
        <time>2019-02-17T18:49:20Z</time>
      </trkpt>
      <trkpt lat="44.7416" lon="3.2646">
        <ele>1031.796875</ele>
      </trkpt>
      <trkpt lat="44.74116" lon="3.26106">
        <ele>1036.3125</ele>
      </trkpt>
      <trkpt lat="44.74122" lon="3.26306">
        <ele>1031.44140625</ele>
      </trkpt>
      <trkpt lat="44.74141" lon="3.26397">
        <ele>1030.984375</ele>
      </trkpt>
      <trkpt lat="44.74166" lon="3.26433">
        <ele>1033.83984375</ele>
      </trkpt>
      <trkpt lat="44.74222" lon="3.2675">
        <ele>1028</ele>
        <time>2019-02-17T18:50:20Z</time>
      </trkpt>
      <trkpt lat="44.74167" lon="3.26782">
        <ele>1027</ele>
        <time>2019-02-17T18:51:20Z</time>
      </trkpt>
      <trkpt lat="44.74123" lon="3.26868">
        <ele>1020</ele>
        <time>2019-02-17T18:52:20Z</time>
      </trkpt>
      <trkpt lat="44.74059" lon="3.26953">
        <ele>1019</ele>
        <time>2019-02-17T18:53:20Z</time>
      </trkpt>
      <trkpt lat="44.7406" lon="3.2702">
        <ele>1016</ele>
        <time>2019-02-17T18:54:20Z</time>
      </trkpt>
      <trkpt lat="44.74033" lon="3.27125">
        <ele>1011</ele>
        <time>2019-02-17T18:55:20Z</time>
      </trkpt>
      <trkpt lat="44.73985" lon="3.27276">
        <ele>1001</ele>
        <time>2019-02-17T18:56:20Z</time>
      </trkpt>
      <trkpt lat="44.73877" lon="3.27324">
        <ele>1000</ele>
        <time>2019-02-17T18:57:20Z</time>
      </trkpt>
      <trkpt lat="44.73792" lon="3.27384">
        <ele>1011</ele>
        <time>2019-02-17T18:58:20Z</time>
      </trkpt>
      <trkpt lat="44.73741" lon="3.27401">
        <ele>1014</ele>
        <time>2019-02-17T18:59:20Z</time>
      </trkpt>
      <trkpt lat="44.73575" lon="3.27421">
        <ele>1013</ele>
        <time>2019-02-17T19:00:20Z</time>
      </trkpt>
      <trkpt lat="44.73497" lon="3.27449">
        <ele>1015</ele>
        <time>2019-02-17T19:01:20Z</time>
      </trkpt>
      <trkpt lat="44.73457" lon="3.27492">
        <ele>1021</ele>
        <time>2019-02-17T19:02:20Z</time>
      </trkpt>
      <trkpt lat="44.73443" lon="3.27587">
        <ele>1021</ele>
        <time>2019-02-17T19:03:20Z</time>
      </trkpt>
      <trkpt lat="44.73405" lon="3.27669">
        <ele>1020</ele>
        <time>2019-02-17T19:04:20Z</time>
      </trkpt>
      <trkpt lat="44.73307" lon="3.27717">
        <ele>1019</ele>
        <time>2019-02-17T19:05:20Z</time>
      </trkpt>
      <trkpt lat="44.73219" lon="3.27683">
        <ele>1014</ele>
        <time>2019-02-17T19:06:20Z</time>
      </trkpt>
      <trkpt lat="44.73158" lon="3.27683">
        <ele>1008</ele>
        <time>2019-02-17T19:07:20Z</time>
      </trkpt>
      <trkpt lat="44.731" lon="3.27707">
        <ele>1002</ele>
        <time>2019-02-17T19:08:20Z</time>
      </trkpt>
      <trkpt lat="44.73051" lon="3.27671">
        <ele>1000</ele>
        <time>2019-02-17T19:09:20Z</time>
      </trkpt>
      <trkpt lat="44.72985" lon="3.27667">
        <ele>1001</ele>
        <time>2019-02-17T19:10:20Z</time>
      </trkpt>
      <trkpt lat="44.72931" lon="3.27637">
        <ele>1007</ele>
        <time>2019-02-17T19:11:20Z</time>
      </trkpt>
      <trkpt lat="44.72875" lon="3.27619">
        <ele>1009</ele>
        <time>2019-02-17T19:12:20Z</time>
      </trkpt>
      <trkpt lat="44.72765" lon="3.27579">
        <ele>1015</ele>
        <time>2019-02-17T19:13:20Z</time>
      </trkpt>
      <trkpt lat="44.72667" lon="3.27624">
        <ele>1021</ele>
        <time>2019-02-17T19:14:20Z</time>
      </trkpt>
      <trkpt lat="44.72441" lon="3.27545">
        <ele>1051</ele>
        <time>2019-02-17T19:15:20Z</time>
      </trkpt>
      <trkpt lat="44.72391" lon="3.27419">
        <ele>1055</ele>
        <time>2019-02-17T19:16:20Z</time>
      </trkpt>
      <trkpt lat="44.72321" lon="3.27361">
        <ele>1054</ele>
        <time>2019-02-17T19:17:20Z</time>
      </trkpt>
      <trkpt lat="44.7225" lon="3.27329">
        <ele>1054</ele>
        <time>2019-02-17T19:18:20Z</time>
      </trkpt>
      <trkpt lat="44.72026" lon="3.27279">
        <ele>1043</ele>
        <time>2019-02-17T19:19:20Z</time>
      </trkpt>
      <trkpt lat="44.71959" lon="3.27254">
        <ele>1043</ele>
        <time>2019-02-17T19:20:20Z</time>
      </trkpt>
      <trkpt lat="44.71849" lon="3.27176">
        <ele>1043</ele>
        <time>2019-02-17T19:21:20Z</time>
      </trkpt>
      <trkpt lat="44.71696" lon="3.27127">
        <ele>1046</ele>
        <time>2019-02-17T19:22:20Z</time>
      </trkpt>
      <trkpt lat="44.7161" lon="3.27039">
        <ele>1053</ele>
        <time>2019-02-17T19:23:20Z</time>
      </trkpt>
      <trkpt lat="44.71563" lon="3.27023">
        <ele>1059</ele>
        <time>2019-02-17T19:24:20Z</time>
      </trkpt>
      <trkpt lat="44.71537" lon="3.27004">
        <ele>1061</ele>
        <time>2019-02-17T19:25:20Z</time>
      </trkpt>
      <trkpt lat="44.71511" lon="3.26972">
        <ele>1063</ele>
        <time>2019-02-17T19:26:20Z</time>
      </trkpt>
      <trkpt lat="44.71489" lon="3.26974">
        <ele>1063</ele>
        <time>2019-02-17T19:27:20Z</time>
      </trkpt>
      <trkpt lat="44.71417" lon="3.27151">
        <ele>1064</ele>
        <time>2019-02-17T19:28:20Z</time>
      </trkpt>
      <trkpt lat="44.71283" lon="3.27192">
        <ele>1065</ele>
        <time>2019-02-17T19:29:20Z</time>
      </trkpt>
      <trkpt lat="44.71132" lon="3.27254">
        <ele>1063</ele>
        <time>2019-02-17T19:30:20Z</time>
      </trkpt>
      <trkpt lat="44.7099" lon="3.2705">
        <ele>1065</ele>
        <time>2019-02-17T19:31:20Z</time>
      </trkpt>
      <trkpt lat="44.70923" lon="3.27008">
        <ele>1062</ele>
        <time>2019-02-17T19:32:20Z</time>
      </trkpt>
      <trkpt lat="44.70867" lon="3.26971">
        <ele>1060</ele>
        <time>2019-02-17T19:33:20Z</time>
      </trkpt>
      <trkpt lat="44.70804" lon="3.26946">
        <ele>1058</ele>
        <time>2019-02-17T19:34:20Z</time>
      </trkpt>
      <trkpt lat="44.70659" lon="3.2691">
        <ele>1053</ele>
        <time>2019-02-17T19:35:20Z</time>
      </trkpt>
      <trkpt lat="44.70542" lon="3.26835">
        <ele>1051</ele>
        <time>2019-02-17T19:36:20Z</time>
      </trkpt>
      <trkpt lat="44.70365" lon="3.26843">
        <ele>1047</ele>
        <time>2019-02-17T19:37:20Z</time>
      </trkpt>
      <trkpt lat="44.7013" lon="3.26797">
        <ele>1040</ele>
        <time>2019-02-17T19:38:20Z</time>
      </trkpt>
      <trkpt lat="44.70097" lon="3.2672">
        <ele>1040</ele>
        <time>2019-02-17T19:39:20Z</time>
      </trkpt>
      <trkpt lat="44.70042" lon="3.26609">
        <ele>1036</ele>
        <time>2019-02-17T19:40:20Z</time>
      </trkpt>
      <trkpt lat="44.69959" lon="3.26393">
        <ele>1026</ele>
        <time>2019-02-17T19:41:20Z</time>
      </trkpt>
      <trkpt lat="44.69923" lon="3.26322">
        <ele>1023</ele>
        <time>2019-02-17T19:42:20Z</time>
      </trkpt>
      <trkpt lat="44.69877" lon="3.26281">
        <ele>1020</ele>
        <time>2019-02-17T19:43:20Z</time>
      </trkpt>
      <trkpt lat="44.69767" lon="3.26195">
        <ele>1015</ele>
        <time>2019-02-17T19:44:20Z</time>
      </trkpt>
      <trkpt lat="44.69666" lon="3.26087">
        <ele>1020</ele>
        <time>2019-02-17T19:45:20Z</time>
      </trkpt>
      <trkpt lat="44.69604" lon="3.26129">
        <ele>1018</ele>
        <time>2019-02-17T19:46:20Z</time>
      </trkpt>
      <trkpt lat="44.6954" lon="3.26154">
        <ele>1019</ele>
        <time>2019-02-17T19:47:20Z</time>
      </trkpt>
      <trkpt lat="44.6944" lon="3.26203">
        <ele>1019</ele>
        <time>2019-02-17T19:48:20Z</time>
      </trkpt>
      <trkpt lat="44.69384" lon="3.26258">
        <ele>1016</ele>
        <time>2019-02-17T19:49:20Z</time>
      </trkpt>
      <trkpt lat="44.69326" lon="3.26274">
        <ele>1020</ele>
        <time>2019-02-17T19:50:20Z</time>
      </trkpt>
      <trkpt lat="44.69162" lon="3.26427">
        <ele>1020</ele>
        <time>2019-02-17T19:51:20Z</time>
      </trkpt>
      <trkpt lat="44.69033" lon="3.26487">
        <ele>1015</ele>
        <time>2019-02-17T19:52:20Z</time>
      </trkpt>
      <trkpt lat="44.68967" lon="3.26248">
        <ele>1026</ele>
        <time>2019-02-17T19:53:20Z</time>
      </trkpt>
      <trkpt lat="44.68881" lon="3.26211">
        <ele>1025</ele>
        <time>2019-02-17T19:54:20Z</time>
      </trkpt>
      <trkpt lat="44.68769" lon="3.26067">
        <ele>1033</ele>
        <time>2019-02-17T19:55:20Z</time>
      </trkpt>
      <trkpt lat="44.68594" lon="3.26066">
        <ele>1029</ele>
        <time>2019-02-17T19:56:20Z</time>
      </trkpt>
      <trkpt lat="44.68582" lon="3.2616">
        <ele>1028</ele>
        <time>2019-02-17T19:57:20Z</time>
      </trkpt>
      <trkpt lat="44.68588" lon="3.26234">
        <ele>1031</ele>
        <time>2019-02-17T19:58:20Z</time>
      </trkpt>
      <trkpt lat="44.68367" lon="3.26387">
        <ele>1024</ele>
        <time>2019-02-17T19:59:20Z</time>
      </trkpt>
      <trkpt lat="44.68237" lon="3.26533">
        <ele>1017</ele>
        <time>2019-02-17T20:00:20Z</time>
      </trkpt>
      <trkpt lat="44.68144" lon="3.26533">
        <ele>1018</ele>
        <time>2019-02-17T20:01:20Z</time>
      </trkpt>
      <trkpt lat="44.68046" lon="3.26579">
        <ele>1030</ele>
        <time>2019-02-17T20:02:20Z</time>
      </trkpt>
      <trkpt lat="44.67895" lon="3.26732">
        <ele>1041</ele>
        <time>2019-02-17T20:03:20Z</time>
      </trkpt>
      <trkpt lat="44.67692" lon="3.26798">
        <ele>1035</ele>
        <time>2019-02-17T20:04:20Z</time>
      </trkpt>
      <trkpt lat="44.67578" lon="3.26843">
        <ele>1033</ele>
        <time>2019-02-17T20:05:20Z</time>
      </trkpt>
      <trkpt lat="44.67503" lon="3.26815">
        <ele>1031</ele>
        <time>2019-02-17T20:06:20Z</time>
      </trkpt>
      <trkpt lat="44.67465" lon="3.26785">
        <ele>1030</ele>
        <time>2019-02-17T20:07:20Z</time>
      </trkpt>
      <trkpt lat="44.67404" lon="3.26778">
        <ele>1026</ele>
        <time>2019-02-17T20:08:20Z</time>
      </trkpt>
      <trkpt lat="44.67362" lon="3.26798">
        <ele>1028</ele>
        <time>2019-02-17T20:09:20Z</time>
      </trkpt>
      <trkpt lat="44.67268" lon="3.26801">
        <ele>1034</ele>
        <time>2019-02-17T20:10:20Z</time>
      </trkpt>
      <trkpt lat="44.6711" lon="3.26992">
        <ele>1046</ele>
        <time>2019-02-17T20:11:20Z</time>
      </trkpt>
      <trkpt lat="44.6695" lon="3.27104">
        <ele>1063</ele>
        <time>2019-02-17T20:12:20Z</time>
      </trkpt>
      <trkpt lat="44.66903" lon="3.27125">
        <ele>1071</ele>
        <time>2019-02-17T20:13:20Z</time>
      </trkpt>
      <trkpt lat="44.66822" lon="3.27126">
        <ele>1078</ele>
        <time>2019-02-17T20:14:20Z</time>
      </trkpt>
      <trkpt lat="44.66668" lon="3.27195">
        <ele>1085</ele>
        <time>2019-02-17T20:15:20Z</time>
      </trkpt>
      <trkpt lat="44.66336" lon="3.27299">
        <ele>1094</ele>
        <time>2019-02-17T20:16:20Z</time>
      </trkpt>
      <trkpt lat="44.66284" lon="3.2734">
        <ele>1099</ele>
        <time>2019-02-17T20:17:20Z</time>
      </trkpt>
      <trkpt lat="44.66217" lon="3.27465">
        <ele>1105</ele>
        <time>2019-02-17T20:18:20Z</time>
      </trkpt>
      <trkpt lat="44.6616" lon="3.27507">
        <ele>1107</ele>
        <time>2019-02-17T20:19:20Z</time>
      </trkpt>
      <trkpt lat="44.65945" lon="3.27691">
        <ele>1119</ele>
        <time>2019-02-17T20:20:20Z</time>
      </trkpt>
      <trkpt lat="44.65817" lon="3.27769">
        <ele>1112</ele>
        <time>2019-02-17T20:21:20Z</time>
      </trkpt>
      <trkpt lat="44.66036" lon="3.27849">
        <ele>1115</ele>
        <time>2019-02-17T20:22:20Z</time>
      </trkpt>
      <trkpt lat="44.66208" lon="3.28036">
        <ele>1113</ele>
        <time>2019-02-17T20:23:20Z</time>
      </trkpt>
      <trkpt lat="44.66379" lon="3.28124">
        <ele>1105</ele>
        <time>2019-02-17T20:24:20Z</time>
      </trkpt>
      <trkpt lat="44.66465" lon="3.28208">
        <ele>1099</ele>
        <time>2019-02-17T20:25:20Z</time>
      </trkpt>
      <trkpt lat="44.66493" lon="3.28303">
        <ele>1097</ele>
        <time>2019-02-17T20:26:20Z</time>
      </trkpt>
      <trkpt lat="44.66517" lon="3.284">
        <ele>1093</ele>
        <time>2019-02-17T20:27:20Z</time>
      </trkpt>
      <trkpt lat="44.66577" lon="3.28533">
        <ele>1086</ele>
        <time>2019-02-17T20:28:20Z</time>
      </trkpt>
      <trkpt lat="44.66694" lon="3.28664">
        <ele>1075</ele>
        <time>2019-02-17T20:29:20Z</time>
      </trkpt>
      <trkpt lat="44.66804" lon="3.2884">
        <ele>1069</ele>
        <time>2019-02-17T20:30:20Z</time>
      </trkpt>
      <trkpt lat="44.6692" lon="3.28906">
        <ele>1072</ele>
        <time>2019-02-17T20:31:20Z</time>
      </trkpt>
      <trkpt lat="44.67039" lon="3.28934">
        <ele>1071</ele>
        <time>2019-02-17T20:32:20Z</time>
      </trkpt>
      <trkpt lat="44.67147" lon="3.29046">
        <ele>1068</ele>
        <time>2019-02-17T20:33:20Z</time>
      </trkpt>
      <trkpt lat="44.67265" lon="3.29145">
        <ele>1061</ele>
        <time>2019-02-17T20:34:20Z</time>
      </trkpt>
      <trkpt lat="44.67339" lon="3.2921">
        <ele>1056</ele>
        <time>2019-02-17T20:35:20Z</time>
      </trkpt>
      <trkpt lat="44.67424" lon="3.29328">
        <ele>1056</ele>
        <time>2019-02-17T20:36:20Z</time>
      </trkpt>
      <trkpt lat="44.67498" lon="3.29383">
        <ele>1055</ele>
        <time>2019-02-17T20:37:20Z</time>
      </trkpt>
      <trkpt lat="44.67569" lon="3.29514">
        <ele>1051</ele>
        <time>2019-02-17T20:38:20Z</time>
      </trkpt>
      <trkpt lat="44.6758" lon="3.29592">
        <ele>1048</ele>
        <time>2019-02-17T20:39:20Z</time>
      </trkpt>
      <trkpt lat="44.67562" lon="3.29733">
        <ele>1047</ele>
        <time>2019-02-17T20:40:20Z</time>
      </trkpt>
      <trkpt lat="44.67613" lon="3.29867">
        <ele>1044</ele>
        <time>2019-02-17T20:41:20Z</time>
      </trkpt>
      <trkpt lat="44.67645" lon="3.29934">
        <ele>1043</ele>
        <time>2019-02-17T20:42:20Z</time>
      </trkpt>
      <trkpt lat="44.67695" lon="3.29972">
        <ele>1039</ele>
        <time>2019-02-17T20:43:20Z</time>
      </trkpt>
      <trkpt lat="44.67786" lon="3.29975">
        <ele>1034</ele>
        <time>2019-02-17T20:44:20Z</time>
      </trkpt>
      <trkpt lat="44.67849" lon="3.30012">
        <ele>1032</ele>
        <time>2019-02-17T20:45:20Z</time>
      </trkpt>
      <trkpt lat="44.67916" lon="3.30023">
        <ele>1031</ele>
        <time>2019-02-17T20:46:20Z</time>
      </trkpt>
      <trkpt lat="44.67963" lon="3.29997">
        <ele>1031</ele>
        <time>2019-02-17T20:47:20Z</time>
      </trkpt>
      <trkpt lat="44.6806" lon="3.30019">
        <ele>1030</ele>
        <time>2019-02-17T20:48:20Z</time>
      </trkpt>
      <trkpt lat="44.68134" lon="3.30078">
        <ele>1029</ele>
        <time>2019-02-17T20:49:20Z</time>
      </trkpt>
      <trkpt lat="44.68143" lon="3.30168">
        <ele>1026</ele>
        <time>2019-02-17T20:50:20Z</time>
      </trkpt>
      <trkpt lat="44.68205" lon="3.30283">
        <ele>1018</ele>
        <time>2019-02-17T20:51:20Z</time>
      </trkpt>
      <trkpt lat="44.6826" lon="3.30251">
        <ele>1016</ele>
        <time>2019-02-17T20:52:20Z</time>
      </trkpt>
      <trkpt lat="44.68287" lon="3.30295">
        <ele>1015</ele>
        <time>2019-02-17T20:53:20Z</time>
      </trkpt>
      <trkpt lat="44.6823" lon="3.30351">
        <ele>1016</ele>
        <time>2019-02-17T20:54:20Z</time>
      </trkpt>
      <trkpt lat="44.68272" lon="3.30471">
        <ele>1013</ele>
        <time>2019-02-17T20:55:20Z</time>
      </trkpt>
      <trkpt lat="44.68382" lon="3.30603">
        <ele>1004</ele>
        <time>2019-02-17T20:56:20Z</time>
      </trkpt>
      <trkpt lat="44.6837" lon="3.30707">
        <ele>1002</ele>
        <time>2019-02-17T20:57:20Z</time>
      </trkpt>
      <trkpt lat="44.68321" lon="3.30822">
        <ele>1008</ele>
        <time>2019-02-17T20:58:20Z</time>
      </trkpt>
      <trkpt lat="44.68255" lon="3.30818">
        <ele>1013</ele>
        <time>2019-02-17T20:59:20Z</time>
      </trkpt>
      <trkpt lat="44.68181" lon="3.30835">
        <ele>1016</ele>
        <time>2019-02-17T21:00:20Z</time>
      </trkpt>
      <trkpt lat="44.68142" lon="3.30824">
        <ele>1015</ele>
        <time>2019-02-17T21:01:20Z</time>
      </trkpt>
      <trkpt lat="44.6811" lon="3.30827">
        <ele>1016</ele>
        <time>2019-02-17T21:02:20Z</time>
      </trkpt>
      <trkpt lat="44.68062" lon="3.30873">
        <ele>1020</ele>
        <time>2019-02-17T21:03:20Z</time>
      </trkpt>
      <trkpt lat="44.67981" lon="3.3097">
        <ele>1032</ele>
        <time>2019-02-17T21:04:20Z</time>
      </trkpt>
      <trkpt lat="44.67987" lon="3.31065">
        <ele>1035</ele>
        <time>2019-02-17T21:05:20Z</time>
      </trkpt>
      <trkpt lat="44.68001" lon="3.3113">
        <ele>1039</ele>
        <time>2019-02-17T21:06:20Z</time>
      </trkpt>
      <trkpt lat="44.68059" lon="3.3113">
        <ele>1041</ele>
        <time>2019-02-17T21:07:20Z</time>
      </trkpt>
      <trkpt lat="44.68094" lon="3.31226">
        <ele>1051</ele>
        <time>2019-02-17T21:08:20Z</time>
      </trkpt>
      <trkpt lat="44.68034" lon="3.31274">
        <ele>1051</ele>
        <time>2019-02-17T21:09:20Z</time>
      </trkpt>
      <trkpt lat="44.68046" lon="3.31362">
        <ele>1056</ele>
        <time>2019-02-17T21:10:20Z</time>
      </trkpt>
      <trkpt lat="44.68034" lon="3.314">
        <ele>1055</ele>
        <time>2019-02-17T21:11:20Z</time>
      </trkpt>
      <trkpt lat="44.68034" lon="3.31521">
        <ele>1056</ele>
        <time>2019-02-17T21:12:20Z</time>
      </trkpt>
      <trkpt lat="44.68004" lon="3.31627">
        <ele>1057</ele>
        <time>2019-02-17T21:13:20Z</time>
      </trkpt>
      <trkpt lat="44.67995" lon="3.31729">
        <ele>1059</ele>
        <time>2019-02-17T21:14:20Z</time>
      </trkpt>
      <trkpt lat="44.68189" lon="3.31586">
        <ele>1061</ele>
        <time>2019-02-17T21:15:20Z</time>
      </trkpt>
      <trkpt lat="44.68235" lon="3.31512">
        <ele>1062</ele>
        <time>2019-02-17T21:16:20Z</time>
      </trkpt>
      <trkpt lat="44.68266" lon="3.31474">
        <ele>1065</ele>
        <time>2019-02-17T21:17:20Z</time>
      </trkpt>
      <trkpt lat="44.68305" lon="3.31468">
        <ele>1067</ele>
        <time>2019-02-17T21:18:20Z</time>
      </trkpt>
      <trkpt lat="44.6833" lon="3.31487">
        <ele>1068</ele>
        <time>2019-02-17T21:19:20Z</time>
      </trkpt>
      <trkpt lat="44.68369" lon="3.31559">
        <ele>1068</ele>
        <time>2019-02-17T21:20:20Z</time>
      </trkpt>
      <trkpt lat="44.68405" lon="3.31577">
        <ele>1070</ele>
        <time>2019-02-17T21:21:20Z</time>
      </trkpt>
      <trkpt lat="44.68468" lon="3.31574">
        <ele>1065</ele>
        <time>2019-02-17T21:22:20Z</time>
      </trkpt>
      <trkpt lat="44.68572" lon="3.31686">
        <ele>1055</ele>
        <time>2019-02-17T21:23:20Z</time>
      </trkpt>
      <trkpt lat="44.68655" lon="3.31728">
        <ele>1045</ele>
        <time>2019-02-17T21:24:20Z</time>
      </trkpt>
      <trkpt lat="44.68697" lon="3.31699">
        <ele>1047</ele>
        <time>2019-02-17T21:25:20Z</time>
      </trkpt>
      <trkpt lat="44.68734" lon="3.31723">
        <ele>1045</ele>
        <time>2019-02-17T21:26:20Z</time>
      </trkpt>
      <trkpt lat="44.68753" lon="3.31773">
        <ele>1037</ele>
        <time>2019-02-17T21:27:20Z</time>
      </trkpt>
      <trkpt lat="44.68799" lon="3.31794">
        <ele>1032</ele>
        <time>2019-02-17T21:28:20Z</time>
      </trkpt>
      <trkpt lat="44.68818" lon="3.31783">
        <ele>1034</ele>
        <time>2019-02-17T21:29:20Z</time>
      </trkpt>
      <trkpt lat="44.68853" lon="3.31785">
        <ele>1030</ele>
        <time>2019-02-17T21:30:20Z</time>
      </trkpt>
      <trkpt lat="44.68952" lon="3.31754">
        <ele>1016</ele>
        <time>2019-02-17T21:31:20Z</time>
      </trkpt>
      <trkpt lat="44.69011" lon="3.31704">
        <ele>1009</ele>
        <time>2019-02-17T21:32:20Z</time>
      </trkpt>
      <trkpt lat="44.69037" lon="3.31696">
        <ele>1007</ele>
        <time>2019-02-17T21:33:20Z</time>
      </trkpt>
      <trkpt lat="44.69119" lon="3.31641">
        <ele>1003</ele>
        <time>2019-02-17T21:34:20Z</time>
      </trkpt>
      <trkpt lat="44.69146" lon="3.31682">
        <ele>999</ele>
        <time>2019-02-17T21:35:20Z</time>
      </trkpt>
      <trkpt lat="44.69175" lon="3.31689">
        <ele>1000</ele>
        <time>2019-02-17T21:36:20Z</time>
      </trkpt>
      <trkpt lat="44.69203" lon="3.31669">
        <ele>999</ele>
        <time>2019-02-17T21:37:20Z</time>
      </trkpt>
      <trkpt lat="44.69246" lon="3.31668">
        <ele>1003</ele>
        <time>2019-02-17T21:38:20Z</time>
      </trkpt>
      <trkpt lat="44.69293" lon="3.31675">
        <ele>1002</ele>
        <time>2019-02-17T21:39:20Z</time>
      </trkpt>
      <trkpt lat="44.69391" lon="3.31808">
        <ele>1011</ele>
        <time>2019-02-17T21:40:20Z</time>
      </trkpt>
      <trkpt lat="44.69494" lon="3.31841">
        <ele>1010</ele>
        <time>2019-02-17T21:41:20Z</time>
      </trkpt>
      <trkpt lat="44.69545" lon="3.31877">
        <ele>1014</ele>
        <time>2019-02-17T21:42:20Z</time>
      </trkpt>
      <trkpt lat="44.69615" lon="3.31936">
        <ele>1015</ele>
        <time>2019-02-17T21:43:20Z</time>
      </trkpt>
      <trkpt lat="44.69619" lon="3.31969">
        <ele>1018</ele>
        <time>2019-02-17T21:44:20Z</time>
      </trkpt>
      <trkpt lat="44.69651" lon="3.32042">
        <ele>1022</ele>
        <time>2019-02-17T21:45:20Z</time>
      </trkpt>
      <trkpt lat="44.69698" lon="3.32068">
        <ele>1024</ele>
        <time>2019-02-17T21:46:20Z</time>
      </trkpt>
      <trkpt lat="44.69725" lon="3.32107">
        <ele>1025</ele>
        <time>2019-02-17T21:47:20Z</time>
      </trkpt>
      <trkpt lat="44.6975" lon="3.32163">
        <ele>1025</ele>
        <time>2019-02-17T21:48:20Z</time>
      </trkpt>
      <trkpt lat="44.6976" lon="3.32227">
        <ele>1023</ele>
        <time>2019-02-17T21:49:20Z</time>
      </trkpt>
      <trkpt lat="44.69733" lon="3.3237">
        <ele>1015</ele>
        <time>2019-02-17T21:50:20Z</time>
      </trkpt>
      <trkpt lat="44.69736" lon="3.324">
        <ele>1012</ele>
        <time>2019-02-17T21:51:20Z</time>
      </trkpt>
      <trkpt lat="44.69763" lon="3.32405">
        <ele>1012</ele>
        <time>2019-02-17T21:52:20Z</time>
      </trkpt>
      <trkpt lat="44.69838" lon="3.32449">
        <ele>1013</ele>
        <time>2019-02-17T21:53:20Z</time>
      </trkpt>
      <trkpt lat="44.69909" lon="3.32486">
        <ele>1017</ele>
        <time>2019-02-17T21:54:20Z</time>
      </trkpt>
      <trkpt lat="44.69944" lon="3.32545">
        <ele>1022</ele>
        <time>2019-02-17T21:55:20Z</time>
      </trkpt>
      <trkpt lat="44.69984" lon="3.32668">
        <ele>1028</ele>
        <time>2019-02-17T21:56:20Z</time>
      </trkpt>
      <trkpt lat="44.70007" lon="3.32704">
        <ele>1029</ele>
        <time>2019-02-17T21:57:20Z</time>
      </trkpt>
      <trkpt lat="44.7" lon="3.32748">
        <ele>1034</ele>
        <time>2019-02-17T21:58:20Z</time>
      </trkpt>
      <trkpt lat="44.7001" lon="3.32838">
        <ele>1041</ele>
        <time>2019-02-17T21:59:20Z</time>
      </trkpt>
      <trkpt lat="44.70062" lon="3.32835">
        <ele>1040</ele>
        <time>2019-02-17T22:00:20Z</time>
      </trkpt>
      <trkpt lat="44.70112" lon="3.32848">
        <ele>1040</ele>
        <time>2019-02-17T22:01:20Z</time>
      </trkpt>
      <trkpt lat="44.70248" lon="3.3304">
        <ele>1057</ele>
        <time>2019-02-17T22:02:20Z</time>
      </trkpt>
      <trkpt lat="44.7047" lon="3.32706">
        <ele>1059</ele>
        <time>2019-02-17T22:03:20Z</time>
      </trkpt>
      <trkpt lat="44.70493" lon="3.3272">
        <ele>1059</ele>
        <time>2019-02-17T22:04:20Z</time>
      </trkpt>
      <trkpt lat="44.70647" lon="3.32658">
        <ele>1049</ele>
        <time>2019-02-17T22:05:20Z</time>
      </trkpt>
      <trkpt lat="44.70681" lon="3.32622">
        <ele>1047</ele>
        <time>2019-02-17T22:06:20Z</time>
      </trkpt>
      <trkpt lat="44.70767" lon="3.32586">
        <ele>1041</ele>
        <time>2019-02-17T22:07:20Z</time>
      </trkpt>
      <trkpt lat="44.70835" lon="3.3254">
        <ele>1037</ele>
        <time>2019-02-17T22:08:20Z</time>
      </trkpt>
      <trkpt lat="44.70908" lon="3.32528">
        <ele>1034</ele>
        <time>2019-02-17T22:09:20Z</time>
      </trkpt>
      <trkpt lat="44.70977" lon="3.32458">
        <ele>1029</ele>
        <time>2019-02-17T22:10:20Z</time>
      </trkpt>
      <trkpt lat="44.7103" lon="3.3237">
        <ele>1027</ele>
        <time>2019-02-17T22:11:20Z</time>
      </trkpt>
      <trkpt lat="44.71127" lon="3.32291">
        <ele>1033</ele>
        <time>2019-02-17T22:12:20Z</time>
      </trkpt>
      <trkpt lat="44.712" lon="3.32262">
        <ele>1037</ele>
        <time>2019-02-17T22:13:20Z</time>
      </trkpt>
      <trkpt lat="44.71239" lon="3.32216">
        <ele>1040</ele>
        <time>2019-02-17T22:14:20Z</time>
      </trkpt>
      <trkpt lat="44.71296" lon="3.32205">
        <ele>1043</ele>
        <time>2019-02-17T22:15:20Z</time>
      </trkpt>
      <trkpt lat="44.71347" lon="3.32153">
        <ele>1047</ele>
        <time>2019-02-17T22:16:20Z</time>
      </trkpt>
      <trkpt lat="44.71378" lon="3.32174">
        <ele>1047</ele>
        <time>2019-02-17T22:17:20Z</time>
      </trkpt>
      <trkpt lat="44.71393" lon="3.32154">
        <ele>1049</ele>
        <time>2019-02-17T22:18:20Z</time>
      </trkpt>
      <trkpt lat="44.71399" lon="3.32034">
        <ele>1053</ele>
        <time>2019-02-17T22:19:20Z</time>
      </trkpt>
      <trkpt lat="44.71449" lon="3.31936">
        <ele>1056</ele>
        <time>2019-02-17T22:20:20Z</time>
      </trkpt>
      <trkpt lat="44.71539" lon="3.31865">
        <ele>1048</ele>
        <time>2019-02-17T22:21:20Z</time>
      </trkpt>
      <trkpt lat="44.71645" lon="3.31709">
        <ele>1037</ele>
        <time>2019-02-17T22:22:20Z</time>
      </trkpt>
      <trkpt lat="44.71678" lon="3.31629">
        <ele>1038</ele>
        <time>2019-02-17T22:23:20Z</time>
      </trkpt>
      <trkpt lat="44.71769" lon="3.31601">
        <ele>1045</ele>
        <time>2019-02-17T22:24:20Z</time>
      </trkpt>
      <trkpt lat="44.71799" lon="3.31586">
        <ele>1049</ele>
        <time>2019-02-17T22:25:20Z</time>
      </trkpt>
      <trkpt lat="44.71828" lon="3.31534">
        <ele>1052</ele>
        <time>2019-02-17T22:26:20Z</time>
      </trkpt>
      <trkpt lat="44.71902" lon="3.31516">
        <ele>1053</ele>
        <time>2019-02-17T22:27:20Z</time>
      </trkpt>
      <trkpt lat="44.71953" lon="3.31491">
        <ele>1053</ele>
        <time>2019-02-17T22:28:20Z</time>
      </trkpt>
      <trkpt lat="44.71956" lon="3.31456">
        <ele>1052</ele>
        <time>2019-02-17T22:29:20Z</time>
      </trkpt>
      <trkpt lat="44.72008" lon="3.31381">
        <ele>1056</ele>
        <time>2019-02-17T22:30:20Z</time>
      </trkpt>
      <trkpt lat="44.72042" lon="3.31349">
        <ele>1058</ele>
        <time>2019-02-17T22:31:20Z</time>
      </trkpt>
      <trkpt lat="44.7213" lon="3.31253">
        <ele>1065</ele>
        <time>2019-02-17T22:32:20Z</time>
      </trkpt>
      <trkpt lat="44.72147" lon="3.31266">
        <ele>1066</ele>
        <time>2019-02-17T22:33:20Z</time>
      </trkpt>
      <trkpt lat="44.72174" lon="3.312">
        <ele>1070</ele>
        <time>2019-02-17T22:34:20Z</time>
      </trkpt>
      <trkpt lat="44.72163" lon="3.31128">
        <ele>1073</ele>
        <time>2019-02-17T22:35:20Z</time>
      </trkpt>
      <trkpt lat="44.72125" lon="3.31024">
        <ele>1075</ele>
        <time>2019-02-17T22:36:20Z</time>
      </trkpt>
      <trkpt lat="44.72131" lon="3.30824">
        <ele>1070</ele>
        <time>2019-02-17T22:37:20Z</time>
      </trkpt>
      <trkpt lat="44.72137" lon="3.30778">
        <ele>1072</ele>
        <time>2019-02-17T22:38:20Z</time>
      </trkpt>
      <trkpt lat="44.72076" lon="3.30629">
        <ele>1070</ele>
        <time>2019-02-17T22:39:20Z</time>
      </trkpt>
      <trkpt lat="44.72069" lon="3.3055">
        <ele>1070</ele>
        <time>2019-02-17T22:40:20Z</time>
      </trkpt>
      <trkpt lat="44.7203" lon="3.30359">
        <ele>1078</ele>
        <time>2019-02-17T22:41:20Z</time>
      </trkpt>
      <trkpt lat="44.72056" lon="3.30237">
        <ele>1082</ele>
        <time>2019-02-17T22:42:20Z</time>
      </trkpt>
      <trkpt lat="44.72145" lon="3.30148">
        <ele>1090</ele>
        <time>2019-02-17T22:43:20Z</time>
      </trkpt>
      <trkpt lat="44.72146" lon="3.30092">
        <ele>1090</ele>
        <time>2019-02-17T22:44:20Z</time>
      </trkpt>
      <trkpt lat="44.72139" lon="3.30013">
        <ele>1090</ele>
        <time>2019-02-17T22:45:20Z</time>
      </trkpt>
      <trkpt lat="44.72098" lon="3.29872">
        <ele>1086</ele>
        <time>2019-02-17T22:46:20Z</time>
      </trkpt>
      <trkpt lat="44.72074" lon="3.2963">
        <ele>1084</ele>
        <time>2019-02-17T22:47:20Z</time>
      </trkpt>
      <trkpt lat="44.72048" lon="3.29592">
        <ele>1082</ele>
        <time>2019-02-17T22:48:20Z</time>
      </trkpt>
      <trkpt lat="44.72023" lon="3.29538">
        <ele>1078</ele>
        <time>2019-02-17T22:49:20Z</time>
      </trkpt>
      <trkpt lat="44.72018" lon="3.29471">
        <ele>1076</ele>
        <time>2019-02-17T22:50:20Z</time>
      </trkpt>
      <trkpt lat="44.72073" lon="3.29264">
        <ele>1080</ele>
        <time>2019-02-17T22:51:20Z</time>
      </trkpt>
      <trkpt lat="44.72161" lon="3.28928">
        <ele>1065</ele>
        <time>2019-02-17T22:52:20Z</time>
      </trkpt>
      <trkpt lat="44.72225" lon="3.28732">
        <ele>1058</ele>
        <time>2019-02-17T22:53:20Z</time>
      </trkpt>
      <trkpt lat="44.72212" lon="3.28624">
        <ele>1056</ele>
        <time>2019-02-17T22:54:20Z</time>
      </trkpt>
      <trkpt lat="44.72225" lon="3.28578">
        <ele>1054</ele>
        <time>2019-02-17T22:55:20Z</time>
      </trkpt>
      <trkpt lat="44.72256" lon="3.28522">
        <ele>1051</ele>
        <time>2019-02-17T22:56:20Z</time>
      </trkpt>
      <trkpt lat="44.72318" lon="3.28593">
        <ele>1043</ele>
        <time>2019-02-17T22:57:20Z</time>
      </trkpt>
      <trkpt lat="44.72363" lon="3.28564">
        <ele>1038</ele>
        <time>2019-02-17T22:58:20Z</time>
      </trkpt>
      <trkpt lat="44.72404" lon="3.28615">
        <ele>1036</ele>
        <time>2019-02-17T22:59:20Z</time>
      </trkpt>
      <trkpt lat="44.72448" lon="3.28684">
        <ele>1041</ele>
        <time>2019-02-17T23:00:20Z</time>
      </trkpt>
      <trkpt lat="44.7252" lon="3.28714">
        <ele>1043</ele>
        <time>2019-02-17T23:01:20Z</time>
      </trkpt>
      <trkpt lat="44.72726" lon="3.28787">
        <ele>1033</ele>
        <time>2019-02-17T23:02:20Z</time>
      </trkpt>
      <trkpt lat="44.72985" lon="3.29092">
        <ele>1019</ele>
        <time>2019-02-17T23:03:20Z</time>
      </trkpt>
      <trkpt lat="44.73036" lon="3.292">
        <ele>1016</ele>
        <time>2019-02-17T23:04:20Z</time>
      </trkpt>
      <trkpt lat="44.73041" lon="3.2932">
        <ele>1011</ele>
        <time>2019-02-17T23:05:20Z</time>
      </trkpt>
      <trkpt lat="44.73143" lon="3.29354">
        <ele>1009</ele>
        <time>2019-02-17T23:06:20Z</time>
      </trkpt>
      <trkpt lat="44.73145" lon="3.29417">
        <ele>1007</ele>
        <time>2019-02-17T23:07:20Z</time>
      </trkpt>
      <trkpt lat="44.73239" lon="3.29433">
        <ele>1008</ele>
        <time>2019-02-17T23:08:20Z</time>
      </trkpt>
      <trkpt lat="44.73665" lon="3.29466">
        <ele>1000</ele>
        <time>2019-02-17T23:09:20Z</time>
      </trkpt>
      <trkpt lat="44.73672" lon="3.29394">
        <ele>1004</ele>
        <time>2019-02-17T23:10:20Z</time>
      </trkpt>
      <trkpt lat="44.73922" lon="3.29433">
        <ele>1007</ele>
        <time>2019-02-17T23:11:20Z</time>
      </trkpt>
      <trkpt lat="44.74069" lon="3.29246">
        <ele>1025</ele>
        <time>2019-02-17T23:12:20Z</time>
      </trkpt>
      <trkpt lat="44.74103" lon="3.2925">
        <ele>1025</ele>
        <time>2019-02-17T23:13:20Z</time>
      </trkpt>
      <trkpt lat="44.7412" lon="3.29074">
        <ele>1019</ele>
        <time>2019-02-17T23:14:20Z</time>
      </trkpt>
      <trkpt lat="44.74176" lon="3.29082">
        <ele>1018</ele>
        <time>2019-02-17T23:15:20Z</time>
      </trkpt>
      <trkpt lat="44.74218" lon="3.29036">
        <ele>1014</ele>
        <time>2019-02-17T23:16:20Z</time>
      </trkpt>
      <trkpt lat="44.7419" lon="3.28762">
        <ele>1003</ele>
        <time>2019-02-17T23:17:20Z</time>
      </trkpt>
      <trkpt lat="44.74479" lon="3.28453">
        <ele>984</ele>
        <time>2019-02-17T23:18:20Z</time>
      </trkpt>
      <trkpt lat="44.74506" lon="3.28394">
        <ele>986</ele>
        <time>2019-02-17T23:19:20Z</time>
      </trkpt>
      <trkpt lat="44.74547" lon="3.28352">
        <ele>988</ele>
        <time>2019-02-17T23:20:20Z</time>
      </trkpt>
      <trkpt lat="44.74618" lon="3.28356">
        <ele>987</ele>
        <time>2019-02-17T23:21:20Z</time>
      </trkpt>
    </trkseg>
  </trk>
</gpx>